SDM56S UUEE-LHBP
Flight info
| Callsign | SDM56S |
|---|---|
| Flight time | N/A |
| Altitude | 40000 |
| Route | LIDRI3J LIDRI T781 REPNU N858 VEPIS Y219 LAPKI L999 KOLOS T52 RAVOK L856 TOSPO/N0463F400 Z367 KEFIR DCT KEKED DCT RIGSA DCT BETED |
| Aircraft | A339/H-SADE1E2E3GHIJ3J5M1P2RWXY/LB2D1 |
Departure
| Time | 2026-05-08 06:27 |
|---|---|
| Airport | Sheremetyevo International Airport (UUEE) |
Arrival
| Time | N/A |
|---|---|
| Airport | Budapest Liszt Ferenc International Airport (LHBP) |
| Time | Latitude | Longitude | Altitude | Speed | Heading |
|---|---|---|---|---|---|
| 2026-05-08 06:23 | 55.97863 | 37.42571 | 641 ft | 0 kts | 73° |
| 2026-05-08 06:23 | 55.97868 | 37.42599 | 641 ft | 7 kts | 73° |
| 2026-05-08 06:24 | 55.97895 | 37.42769 | 642 ft | 20 kts | 74° |
| 2026-05-08 06:24 | 55.97935 | 37.43031 | 645 ft | 24 kts | 75° |
| 2026-05-08 06:24 | 55.97982 | 37.43329 | 640 ft | 27 kts | 74° |
| 2026-05-08 06:24 | 55.98029 | 37.43665 | 636 ft | 29 kts | 75° |
| 2026-05-08 06:25 | 55.98036 | 37.43967 | 640 ft | 14 kts | 132° |
| 2026-05-08 06:25 | 55.97933 | 37.44026 | 639 ft | 18 kts | 164° |
| 2026-05-08 06:25 | 55.97803 | 37.44087 | 639 ft | 21 kts | 165° |
| 2026-05-08 06:25 | 55.97644 | 37.44162 | 642 ft | 25 kts | 164° |
| 2026-05-08 06:26 | 55.97517 | 37.44105 | 641 ft | 14 kts | 247° |
| 2026-05-08 06:26 | 55.97474 | 37.43734 | 639 ft | 64 kts | 255° |
| 2026-05-08 06:26 | 55.97288 | 37.42483 | 641 ft | 144 kts | 255° |
| 2026-05-08 06:26 | 55.96980 | 37.40456 | 914 ft | 180 kts | 258° |
| 2026-05-08 06:27 | 55.96624 | 37.38199 | 1720 ft | 194 kts | 257° |
| 2026-05-08 06:27 | 55.96135 | 37.36018 | 2665 ft | 186 kts | 246° |
| 2026-05-08 06:27 | 55.95471 | 37.33973 | 3164 ft | 199 kts | 242° |
| 2026-05-08 06:27 | 55.94662 | 37.31826 | 3614 ft | 219 kts | 234° |
| 2026-05-08 06:28 | 55.93605 | 37.29781 | 4232 ft | 226 kts | 228° |
| 2026-05-08 06:28 | 55.92552 | 37.27714 | 5085 ft | 224 kts | 232° |
| 2026-05-08 06:28 | 55.91608 | 37.25517 | 5892 ft | 224 kts | 237° |
| 2026-05-08 06:28 | 55.90751 | 37.23185 | 6604 ft | 225 kts | 240° |
| 2026-05-08 06:29 | 55.89943 | 37.20778 | 6897 ft | 227 kts | 242° |
| 2026-05-08 06:29 | 55.89158 | 37.18328 | 6992 ft | 227 kts | 243° |
| 2026-05-08 06:29 | 55.88487 | 37.15774 | 7016 ft | 234 kts | 249° |
| 2026-05-08 06:29 | 55.87834 | 37.12927 | 6992 ft | 257 kts | 249° |
| 2026-05-08 06:30 | 55.87139 | 37.09974 | 7014 ft | 259 kts | 249° |
| 2026-05-08 06:30 | 55.86567 | 37.06925 | 7013 ft | 261 kts | 262° |
| 2026-05-08 06:30 | 55.86624 | 37.03697 | 7527 ft | 263 kts | 281° |
| 2026-05-08 06:30 | 55.87129 | 37.00612 | 7868 ft | 262 kts | 286° |
| 2026-05-08 06:31 | 55.87670 | 36.97505 | 8004 ft | 263 kts | 286° |
| 2026-05-08 06:31 | 55.88201 | 36.94386 | 8013 ft | 263 kts | 285° |
| 2026-05-08 06:31 | 55.88720 | 36.91260 | 8019 ft | 263 kts | 285° |
| 2026-05-08 06:31 | 55.89236 | 36.88125 | 8012 ft | 263 kts | 285° |
| 2026-05-08 06:32 | 55.89745 | 36.85003 | 8016 ft | 263 kts | 285° |
| 2026-05-08 06:32 | 55.90252 | 36.81880 | 8020 ft | 263 kts | 285° |
| 2026-05-08 06:32 | 55.90757 | 36.78750 | 8017 ft | 263 kts | 284° |
| 2026-05-08 06:32 | 55.91020 | 36.75517 | 8176 ft | 266 kts | 270° |
| 2026-05-08 06:33 | 55.90775 | 36.72302 | 8991 ft | 264 kts | 256° |
| 2026-05-08 06:33 | 55.90291 | 36.69144 | 9806 ft | 265 kts | 256° |
| 2026-05-08 06:33 | 55.89824 | 36.65936 | 10395 ft | 273 kts | 256° |
| 2026-05-08 06:33 | 55.89343 | 36.62526 | 10581 ft | 294 kts | 256° |
| 2026-05-08 06:34 | 55.88832 | 36.58875 | 10768 ft | 312 kts | 256° |
| 2026-05-08 06:34 | 55.88302 | 36.55095 | 11294 ft | 317 kts | 256° |
| 2026-05-08 06:34 | 55.87765 | 36.51284 | 11951 ft | 318 kts | 256° |
| 2026-05-08 06:34 | 55.87222 | 36.47452 | 12584 ft | 320 kts | 256° |
| 2026-05-08 06:35 | 55.86679 | 36.43601 | 13186 ft | 323 kts | 256° |
| 2026-05-08 06:35 | 55.86184 | 36.39683 | 13826 ft | 325 kts | 258° |
| 2026-05-08 06:35 | 55.85716 | 36.35737 | 14382 ft | 327 kts | 258° |
| 2026-05-08 06:35 | 55.85247 | 36.31763 | 14934 ft | 329 kts | 258° |
| 2026-05-08 06:36 | 55.84765 | 36.27751 | 15470 ft | 332 kts | 258° |
| 2026-05-08 06:36 | 55.84274 | 36.23725 | 16026 ft | 334 kts | 258° |
| 2026-05-08 06:36 | 55.83774 | 36.19679 | 16565 ft | 336 kts | 258° |
| 2026-05-08 06:36 | 55.83268 | 36.15601 | 17098 ft | 339 kts | 258° |
| 2026-05-08 06:37 | 55.82757 | 36.11499 | 17667 ft | 341 kts | 258° |
| 2026-05-08 06:37 | 55.82247 | 36.07419 | 18252 ft | 344 kts | 258° |
| 2026-05-08 06:37 | 55.81724 | 36.03242 | 18774 ft | 347 kts | 258° |
| 2026-05-08 06:37 | 55.81197 | 35.99045 | 19290 ft | 349 kts | 258° |
| 2026-05-08 06:38 | 55.80660 | 35.94820 | 19751 ft | 352 kts | 257° |
| 2026-05-08 06:38 | 55.80117 | 35.90570 | 20238 ft | 354 kts | 257° |
| 2026-05-08 06:38 | 55.79568 | 35.86293 | 20717 ft | 356 kts | 257° |
| 2026-05-08 06:38 | 55.79013 | 35.81984 | 21188 ft | 359 kts | 257° |
| 2026-05-08 06:39 | 55.78454 | 35.77650 | 21673 ft | 361 kts | 257° |
| 2026-05-08 06:39 | 55.77889 | 35.73277 | 22175 ft | 364 kts | 257° |
| 2026-05-08 06:39 | 55.77319 | 35.68881 | 22646 ft | 367 kts | 257° |
| 2026-05-08 06:39 | 55.76743 | 35.64451 | 23121 ft | 369 kts | 257° |
| 2026-05-08 06:40 | 55.76161 | 35.59991 | 23607 ft | 372 kts | 257° |
| 2026-05-08 06:40 | 55.75583 | 35.55502 | 24021 ft | 374 kts | 258° |
| 2026-05-08 06:40 | 55.75221 | 35.50899 | 24484 ft | 377 kts | 265° |
| 2026-05-08 06:40 | 55.75040 | 35.46254 | 24934 ft | 379 kts | 265° |
| 2026-05-08 06:41 | 55.74851 | 35.41570 | 25365 ft | 381 kts | 265° |
| 2026-05-08 06:41 | 55.74652 | 35.36871 | 25838 ft | 382 kts | 264° |
| 2026-05-08 06:41 | 55.74445 | 35.32143 | 26279 ft | 385 kts | 264° |
| 2026-05-08 06:41 | 55.74234 | 35.27388 | 26732 ft | 388 kts | 264° |
| 2026-05-08 06:42 | 55.74018 | 35.22593 | 27184 ft | 390 kts | 264° |
| 2026-05-08 06:42 | 55.73802 | 35.17841 | 27630 ft | 393 kts | 264° |
| 2026-05-08 06:42 | 55.73581 | 35.13000 | 28066 ft | 395 kts | 264° |
| 2026-05-08 06:42 | 55.73357 | 35.08119 | 28480 ft | 397 kts | 264° |
| 2026-05-08 06:43 | 55.73131 | 35.03231 | 28893 ft | 399 kts | 264° |
| 2026-05-08 06:43 | 55.72907 | 34.98313 | 29281 ft | 401 kts | 264° |
| 2026-05-08 06:43 | 55.72680 | 34.93354 | 29661 ft | 404 kts | 263° |
| 2026-05-08 06:43 | 55.72451 | 34.88381 | 30044 ft | 406 kts | 263° |
| 2026-05-08 06:44 | 55.72218 | 34.83384 | 30377 ft | 408 kts | 263° |
| 2026-05-08 06:44 | 55.71981 | 34.78364 | 30723 ft | 409 kts | 263° |
| 2026-05-08 06:44 | 55.71740 | 34.73310 | 31065 ft | 411 kts | 263° |
| 2026-05-08 06:44 | 55.71497 | 34.68247 | 31400 ft | 413 kts | 263° |
| 2026-05-08 06:45 | 55.71228 | 34.63160 | 31725 ft | 414 kts | 261° |
| 2026-05-08 06:45 | 55.70718 | 34.58119 | 32048 ft | 415 kts | 256° |
| 2026-05-08 06:45 | 55.69923 | 34.53208 | 32354 ft | 416 kts | 250° |
| 2026-05-08 06:45 | 55.68913 | 34.48373 | 32639 ft | 418 kts | 249° |
| 2026-05-08 06:46 | 55.67917 | 34.43601 | 32918 ft | 419 kts | 249° |
| 2026-05-08 06:46 | 55.66910 | 34.38734 | 33164 ft | 421 kts | 249° |
| 2026-05-08 06:46 | 55.65898 | 34.33835 | 33354 ft | 422 kts | 249° |
| 2026-05-08 06:46 | 55.64886 | 34.28946 | 33532 ft | 423 kts | 249° |
| 2026-05-08 06:47 | 55.63868 | 34.24045 | 33754 ft | 424 kts | 249° |
| 2026-05-08 06:47 | 55.62847 | 34.19144 | 33985 ft | 424 kts | 249° |
| 2026-05-08 06:47 | 55.61826 | 34.14259 | 34217 ft | 423 kts | 249° |
| 2026-05-08 06:47 | 55.60804 | 34.09382 | 34381 ft | 423 kts | 249° |
| 2026-05-08 06:48 | 55.59780 | 34.04503 | 34564 ft | 423 kts | 249° |
| 2026-05-08 06:48 | 55.58769 | 33.99702 | 34829 ft | 421 kts | 249° |
| 2026-05-08 06:48 | 55.57746 | 33.94855 | 35075 ft | 420 kts | 249° |
| 2026-05-08 06:48 | 55.56721 | 33.90011 | 35325 ft | 420 kts | 249° |
| 2026-05-08 06:49 | 55.55694 | 33.85168 | 35578 ft | 420 kts | 249° |
| 2026-05-08 06:49 | 55.54670 | 33.80351 | 35826 ft | 419 kts | 249° |
| 2026-05-08 06:49 | 55.53641 | 33.75521 | 36075 ft | 419 kts | 249° |
| 2026-05-08 06:49 | 55.52610 | 33.70696 | 36339 ft | 420 kts | 249° |
| 2026-05-08 06:50 | 55.51582 | 33.65879 | 36604 ft | 419 kts | 250° |
| 2026-05-08 06:50 | 55.50708 | 33.60963 | 36864 ft | 420 kts | 255° |
| 2026-05-08 06:50 | 55.50000 | 33.55964 | 37131 ft | 420 kts | 255° |
| 2026-05-08 06:50 | 55.49303 | 33.51015 | 37402 ft | 421 kts | 255° |
| 2026-05-08 06:51 | 55.48582 | 33.45953 | 37680 ft | 421 kts | 255° |
| 2026-05-08 06:51 | 55.47869 | 33.41014 | 37942 ft | 420 kts | 255° |
| 2026-05-08 06:51 | 55.47143 | 33.36025 | 38233 ft | 420 kts | 255° |
| 2026-05-08 06:51 | 55.46413 | 33.31046 | 38525 ft | 419 kts | 255° |
| 2026-05-08 06:52 | 55.45681 | 33.26076 | 38777 ft | 418 kts | 255° |
| 2026-05-08 06:52 | 55.44947 | 33.21109 | 39012 ft | 418 kts | 255° |
| 2026-05-08 06:52 | 55.44214 | 33.16154 | 39244 ft | 418 kts | 255° |
| 2026-05-08 06:52 | 55.43477 | 33.11187 | 39472 ft | 420 kts | 255° |
| 2026-05-08 06:53 | 55.42736 | 33.06215 | 39696 ft | 420 kts | 255° |
| 2026-05-08 06:53 | 55.41994 | 33.01247 | 39935 ft | 420 kts | 255° |
| 2026-05-08 06:53 | 55.41246 | 32.96261 | 40060 ft | 423 kts | 255° |
| 2026-05-08 06:53 | 55.40490 | 32.91237 | 40078 ft | 427 kts | 255° |
| 2026-05-08 06:54 | 55.38951 | 32.81049 | 40081 ft | 434 kts | 255° |
| 2026-05-08 06:54 | 55.37394 | 32.70800 | 40078 ft | 438 kts | 255° |